Main page
METAR-TAF:

METAR-TAF

Airports :

Gatlinburg–Pigeon Forge Airport

Gatlinburg, Tennessee, United States

latitude: 35-51-28N, longitude: 083-31-43W, elevation: 1014 ft

Current weather observation

The report was made 22 minutes ago, at 21:35 UTC
Wind 9 mph from the North/Northwest
Temperature 52°F
Humidity 58%
Pressure 29.98 in. Hg
Visibility: 10 miles
Overcast at a height of 6000 ft

METAR: KGKT 012135Z AUTO 34008KT 10SM OVC060 11/03 A2998 RMK A01

Time: 16:57 (21:57 UTC)


TAF: missing

Weather observations and forecasts of more than 4000 airports (METAR and TAF reports).

The available stations are represented by yellow and red dots on the map.

Hover mouse over dot to see the name of the station.

Then click to see weather observations and forecasts.

To change the map : click on the green buttons with a black cross to zoom in, on the green button with a dash to zoom out, or on the green arrows for adjacent maps.


METAR-TAF: